Time;durP1;ratioP1;P1;durP2;ratioP2;P2;SDS_P1;SDS_P2;PMS_P1;PMS_P2;Temp;Humidity;BMP_temperature;BMP_pressure;BME280_temperature;BME280_humidity;BME280_pressure;Samples;Min_cycle;Max_cycle;Signal;HPM_P1;HPM_P2
2022/03/12 00:01:45;;;;;;;7.67;4.97;;;;;;;-2.29;43.46;100659.94;4916443;29;20243;-81
2022/03/12 00:04:13;;;;;;;7.10;5.20;;;;;;;-2.16;42.86;100665.09;4919402;29;20697;-82
2022/03/12 00:06:40;;;;;;;7.53;5.30;;;;;;;-2.23;43.12;100664.72;4923938;29;20233;-81
2022/03/12 00:09:07;;;;;;;6.00;4.73;;;;;;;-2.33;43.35;100656.66;4924506;29;20230;-81
2022/03/12 00:11:35;;;;;;;6.90;5.10;;;;;;;-2.23;42.83;100665.56;4924302;29;20233;-81
2022/03/12 00:14:04;;;;;;;6.33;4.60;;;;;;;-2.23;43.12;100659.47;4922946;29;20595;-81
2022/03/12 00:16:31;;;;;;;6.23;4.73;;;;;;;-2.22;43.15;100667.22;4922805;29;20300;-81
2022/03/12 00:19:03;;;;;;;8.57;5.03;;;;;;;-2.21;42.47;100665.44;4918114;29;20238;-81
2022/03/12 00:21:41;;;;;;;7.00;4.97;;;;;;;-2.17;42.35;100668.69;4910927;29;20234;-82
2022/03/12 00:24:12;;;;;;;5.57;4.47;;;;;;;-2.26;43.14;100670.19;4914279;29;20262;-81
2022/03/12 00:26:40;;;;;;;8.37;4.90;;;;;;;-2.13;42.06;100665.72;4892114;29;20235;-82
2022/03/12 00:29:14;;;;;;;6.83;4.83;;;;;;;-2.18;41.86;100652.09;4907171;29;20238;-81
2022/03/12 00:31:42;;;;;;;7.13;4.97;;;;;;;-2.09;42.02;100674.19;4920841;29;20253;-81
2022/03/12 00:34:09;;;;;;;7.03;5.20;;;;;;;-2.14;42.29;100673.69;4927063;29;20245;-80
2022/03/12 00:36:36;;;;;;;7.17;4.93;;;;;;;-2.19;42.30;100678.47;4927457;29;20265;-81
2022/03/12 00:39:04;;;;;;;7.03;4.93;;;;;;;-2.25;42.57;100669.25;4926637;29;20639;-81
2022/03/12 00:41:31;;;;;;;6.93;5.10;;;;;;;-2.24;42.62;100674.38;4909257;29;20239;-81
2022/03/12 00:43:58;;;;;;;7.93;5.93;;;;;;;-2.31;42.66;100664.44;4915047;29;20345;-81
2022/03/12 00:46:25;;;;;;;9.13;5.70;;;;;;;-2.36;42.54;100662.16;4927316;29;20888;-81
2022/03/12 00:48:52;;;;;;;8.33;5.50;;;;;;;-2.20;41.97;100651.38;4927510;29;20234;-81
2022/03/12 00:51:19;;;;;;;9.53;5.60;;;;;;;-2.25;42.41;100669.25;4923364;29;20233;-81
2022/03/12 00:53:45;;;;;;;8.67;5.90;;;;;;;-2.16;42.04;100663.31;4927109;29;20277;-81
2022/03/12 00:56:13;;;;;;;8.37;5.57;;;;;;;-2.18;41.96;100664.38;4927447;29;20766;-81
2022/03/12 00:58:45;;;;;;;10.83;6.23;;;;;;;-2.20;42.18;100671.53;4922362;29;20234;-81
2022/03/12 01:01:13;;;;;;;8.57;5.73;;;;;;;-2.23;42.04;100677.84;4908459;29;20235;-81
2022/03/12 01:03:40;;;;;;;8.17;5.80;;;;;;;-2.26;41.64;100660.53;4907566;29;20249;-82
2022/03/12 01:06:07;;;;;;;7.87;5.03;;;;;;;-2.27;41.74;100669.34;4925188;29;20249;-81
2022/03/12 01:08:34;;;;;;;6.47;4.70;;;;;;;-2.18;41.54;100670.47;4928016;29;20240;-81
2022/03/12 01:11:04;;;;;;;10.73;4.70;;;;;;;-2.25;41.63;100675.34;4898132;29;20227;-81
2022/03/12 01:13:32;;;;;;;7.57;5.40;;;;;;;-2.23;41.60;100685.72;4886054;29;20270;-81
2022/03/12 01:15:59;;;;;;;9.10;5.10;;;;;;;-2.13;41.03;100676.22;4915749;29;20286;-81
2022/03/12 01:18:26;;;;;;;5.83;4.50;;;;;;;-2.25;41.33;100666.63;4907828;29;20242;-82
2022/03/12 01:20:54;;;;;;;5.70;4.50;;;;;;;-2.22;41.30;100664.59;4908491;29;20230;-81
2022/03/12 01:23:25;;;;;;;6.87;4.47;;;;;;;-2.11;41.03;100663.81;4914950;29;20713;-81
2022/03/12 01:25:53;;;;;;;6.47;4.13;;;;;;;-2.21;40.96;100673.31;4927003;29;20277;-81
2022/03/12 01:28:20;;;;;;;7.13;4.50;;;;;;;-2.30;41.08;100663.50;4925768;29;20233;-81
2022/03/12 01:30:48;;;;;;;5.70;4.43;;;;;;;-2.16;40.89;100671.19;4920764;29;20226;-82
2022/03/12 01:33:15;;;;;;;5.80;4.00;;;;;;;-2.13;40.25;100662.25;4924125;29;20297;-81
2022/03/12 01:35:42;;;;;;;7.67;4.60;;;;;;;-2.24;40.44;100661.25;4918232;29;20248;-81
2022/03/12 01:38:09;;;;;;;5.60;4.30;;;;;;;-2.09;39.89;100667.16;4926282;29;20270;-81
2022/03/12 01:40:36;;;;;;;5.70;4.23;;;;;;;-1.98;39.41;100661.94;4908803;29;20230;-81
2022/03/12 01:43:04;;;;;;;6.17;4.63;;;;;;;-2.12;39.75;100656.03;4907813;29;20267;-81
2022/03/12 01:45:31;;;;;;;6.27;4.53;;;;;;;-2.20;39.86;100663.66;4892555;29;20247;-81
2022/03/12 01:48:01;;;;;;;6.00;4.00;;;;;;;-2.25;39.90;100667.47;4920319;29;20238;-81
2022/03/12 01:50:31;;;;;;;4.50;3.73;;;;;;;-2.20;40.13;100669.75;4925483;29;20237;-81
2022/03/12 01:53:03;;;;;;;4.83;4.03;;;;;;;-2.22;39.58;100669.00;4928030;29;20242;-81
2022/03/12 01:55:31;;;;;;;4.73;3.67;;;;;;;-2.29;39.73;100673.06;4928882;29;20277;-81
2022/03/12 01:58:02;;;;;;;5.60;4.13;;;;;;;-2.38;39.69;100677.16;4927207;29;20237;-81
2022/03/12 02:00:46;;;;;;;5.73;3.60;;;;;;;-2.41;39.71;100679.19;4916504;29;20237;-81
2022/03/12 02:03:26;;;;;;;6.40;3.80;;;;;;;-2.45;39.87;100691.69;4908690;29;20335;-82
2022/03/12 02:05:53;;;;;;;6.77;3.90;;;;;;;-2.55;40.14;100682.81;4924131;29;20261;-81
2022/03/12 02:08:20;;;;;;;7.37;4.07;;;;;;;-2.59;40.26;100680.50;4924256;29;20250;-82
2022/03/12 02:10:49;;;;;;;4.57;3.40;;;;;;;-2.66;41.23;100680.13;4908369;29;20235;-81
2022/03/12 02:13:17;;;;;;;7.27;3.87;;;;;;;-2.71;42.12;100687.50;4908679;29;20234;-82
2022/03/12 02:15:44;;;;;;;6.07;4.53;;;;;;;-2.66;42.19;100694.06;4892248;29;20259;-81
2022/03/12 02:18:13;;;;;;;5.63;4.13;;;;;;;-2.95;43.08;100690.06;4917309;29;20262;-81
2022/03/12 02:20:41;;;;;;;5.57;4.47;;;;;;;-3.18;43.61;100696.91;4912121;29;20237;-81
2022/03/12 02:23:09;;;;;;;6.90;4.50;;;;;;;-3.25;43.95;100693.03;4926982;29;20234;-82
2022/03/12 02:25:36;;;;;;;6.13;4.77;;;;;;;-3.38;44.16;100696.59;4927254;29;20234;-81
2022/03/12 02:28:14;;;;;;;6.27;4.70;;;;;;;-3.53;45.08;100695.03;4910264;29;20238;-81
2022/03/12 02:30:55;;;;;;;6.43;4.77;;;;;;;-3.46;44.74;100705.00;4908474;29;20275;-81
2022/03/12 02:33:27;;;;;;;7.60;4.90;;;;;;;-3.54;45.08;100699.41;4912423;29;20416;-81
2022/03/12 02:35:55;;;;;;;6.60;4.80;;;;;;;-3.52;45.71;100704.56;4908027;29;20325;-81
2022/03/12 02:38:24;;;;;;;6.70;5.17;;;;;;;-3.48;47.46;100711.28;4919118;29;20237;-81
2022/03/12 02:40:52;;;;;;;8.37;5.33;;;;;;;-3.56;50.34;100712.66;4921510;29;20246;-81
2022/03/12 02:43:21;;;;;;;8.37;6.20;;;;;;;-3.66;53.98;100727.28;4907648;29;20243;-81
2022/03/12 02:45:51;;;;;;;11.27;6.60;;;;;;;-3.77;56.26;100728.94;4908124;29;20235;-81
2022/03/12 02:48:18;;;;;;;9.07;6.67;;;;;;;-3.82;56.99;100718.75;4912329;29;20226;-81
2022/03/12 02:50:47;;;;;;;11.43;7.03;;;;;;;-3.88;57.62;100727.03;4926805;29;20764;-82
2022/03/12 02:53:14;;;;;;;12.60;6.70;;;;;;;-4.02;58.15;100721.88;4925623;29;20652;-81
2022/03/12 02:55:41;;;;;;;8.47;6.80;;;;;;;-4.13;58.22;100716.50;4910969;29;20326;-81
2022/03/12 02:58:11;;;;;;;11.03;7.60;;;;;;;-4.06;58.12;100723.84;4908780;29;20234;-80
2022/03/12 03:00:38;;;;;;;12.83;7.63;;;;;;;-4.19;58.35;100719.50;4926189;29;20280;-81
2022/03/12 03:03:06;;;;;;;12.37;7.70;;;;;;;-4.33;58.72;100730.84;4925271;29;20886;-81
2022/03/12 03:06:00;;;;;;;12.37;7.93;;;;;;;-4.33;58.59;100724.78;4924956;29;20272;-81
2022/03/12 03:08:28;;;;;;;11.57;7.97;;;;;;;-4.41;58.47;100720.06;4923170;29;20261;-81
2022/03/12 03:10:59;;;;;;;11.53;7.53;;;;;;;-4.43;58.40;100721.91;4922045;29;20238;-81
2022/03/12 03:13:33;;;;;;;11.37;8.10;;;;;;;-4.54;58.90;100727.84;4918368;29;20264;-81
2022/03/12 03:16:02;;;;;;;12.50;8.17;;;;;;;-4.61;58.79;100725.69;4926264;29;20256;-81
2022/03/12 03:18:31;;;;;;;15.37;8.40;;;;;;;-4.61;58.73;100731.78;4924482;29;20222;-82
2022/03/12 03:20:59;;;;;;;11.03;7.47;;;;;;;-4.66;58.79;100725.16;4914558;29;20322;-81
2022/03/12 03:23:30;;;;;;;13.33;8.47;;;;;;;-4.72;58.80;100726.41;4907485;29;20325;-81
2022/03/12 03:25:59;;;;;;;13.77;8.63;;;;;;;-4.86;59.38;100726.41;4906775;29;20238;-81
2022/03/12 03:28:27;;;;;;;12.30;7.70;;;;;;;-4.91;59.48;100729.31;4907248;29;20235;-81
2022/03/12 03:30:54;;;;;;;13.77;8.10;;;;;;;-4.89;58.73;100723.97;4912200;29;20234;-81
2022/03/12 03:33:23;;;;;;;11.40;7.70;;;;;;;-4.90;58.79;100730.16;4919669;29;20724;-81
2022/03/12 03:35:50;;;;;;;13.77;9.10;;;;;;;-5.00;58.91;100739.50;4916625;29;20302;-82
2022/03/12 03:38:17;;;;;;;11.30;7.60;;;;;;;-5.01;58.31;100743.03;4922384;29;20242;-81
2022/03/12 03:40:45;;;;;;;12.27;7.87;;;;;;;-4.99;57.80;100739.38;4925614;29;20221;-81
2022/03/12 03:43:14;;;;;;;11.73;7.20;;;;;;;-4.94;57.42;100737.31;4924969;29;20230;-81
2022/03/12 03:45:47;;;;;;;10.67;7.47;;;;;;;-4.90;56.24;100730.97;4925261;29;20290;-80
2022/03/12 03:48:19;;;;;;;11.43;7.47;;;;;;;-4.92;55.71;100730.25;4924494;29;20245;-81
2022/03/12 03:50:47;;;;;;;9.87;6.70;;;;;;;-4.90;55.84;100732.78;4924912;29;20258;-81
2022/03/12 03:53:16;;;;;;;9.37;6.70;;;;;;;-4.82;55.18;100734.91;4925695;29;20229;-81
2022/03/12 03:55:43;;;;;;;9.93;7.07;;;;;;;-4.62;54.53;100740.56;4925127;29;20321;-81
2022/03/12 03:58:14;;;;;;;13.33;7.43;;;;;;;-4.75;54.63;100730.94;4924801;29;20229;-81
2022/03/12 04:00:54;;;;;;;10.77;6.60;;;;;;;-4.67;54.02;100744.41;4924543;29;20234;-81
2022/03/12 04:03:21;;;;;;;9.00;6.20;;;;;;;-4.64;52.71;100731.13;4923904;29;20248;-81
2022/03/12 04:05:48;;;;;;;8.63;5.87;;;;;;;-4.37;50.54;100728.53;4925062;29;20254;-81
2022/03/12 04:08:15;;;;;;;9.83;6.23;;;;;;;-4.24;49.20;100739.88;4923716;29;20245;-81
2022/03/12 04:10:42;;;;;;;9.30;6.03;;;;;;;-4.20;48.63;100728.31;4924875;29;20827;-80
2022/03/12 04:13:12;;;;;;;7.00;5.30;;;;;;;-4.10;47.67;100729.38;4924566;29;20325;-81
2022/03/12 04:15:39;;;;;;;8.67;5.97;;;;;;;-4.01;47.52;100739.25;4924615;29;20242;-85
2022/03/12 04:18:07;;;;;;;8.53;5.90;;;;;;;-3.92;47.27;100732.59;4906818;29;20234;-81
2022/03/12 04:20:35;;;;;;;7.97;5.73;;;;;;;-3.87;46.43;100735.75;4891305;29;20298;-81
2022/03/12 04:23:02;;;;;;;8.90;5.53;;;;;;;-3.84;45.86;100727.69;4906945;29;20267;-81
2022/03/12 04:25:31;;;;;;;8.10;5.97;;;;;;;-3.90;46.18;100728.06;4906686;29;20235;-81
2022/03/12 04:27:58;;;;;;;8.07;5.17;;;;;;;-3.79;45.32;100728.22;4900713;29;20235;-81
2022/03/12 04:30:25;;;;;;;11.23;5.83;;;;;;;-3.78;45.65;100727.28;4912900;29;21518;-81
2022/03/12 04:32:52;;;;;;;14.03;6.10;;;;;;;-3.83;44.71;100714.50;4926399;29;20230;-81
2022/03/12 04:35:23;;;;;;;11.37;5.07;;;;;;;-3.70;44.67;100717.97;4918618;29;20243;-82
2022/03/12 04:37:51;;;;;;;10.07;5.17;;;;;;;-3.72;44.71;100726.84;4909180;29;20239;-82
2022/03/12 04:40:23;;;;;;;12.87;6.10;;;;;;;-3.63;44.77;100729.69;4923785;29;20273;-82
2022/03/12 04:42:50;;;;;;;8.13;5.50;;;;;;;-3.67;44.33;100722.16;4924979;29;20218;-82
2022/03/12 04:45:20;;;;;;;10.00;5.73;;;;;;;-3.80;44.73;100721.28;4909576;29;20253;-82
2022/03/12 04:47:48;;;;;;;8.97;4.87;;;;;;;-3.79;44.21;100726.44;4926296;29;20302;-81
2022/03/12 04:50:16;;;;;;;9.67;5.33;;;;;;;-3.73;44.30;100722.53;4924390;29;20241;-82
2022/03/12 04:52:45;;;;;;;7.97;5.40;;;;;;;-3.69;43.74;100721.44;4925884;29;20265;-82
2022/03/12 04:55:18;;;;;;;7.17;4.97;;;;;;;-3.66;43.98;100726.44;4924713;29;20290;-81
2022/03/12 04:57:46;;;;;;;7.27;4.87;;;;;;;-3.81;44.54;100719.59;4925351;29;20665;-81
2022/03/12 05:00:15;;;;;;;8.93;5.57;;;;;;;-3.76;44.20;100720.16;4924292;29;20253;-81
2022/03/12 05:02:42;;;;;;;8.50;5.40;;;;;;;-3.83;44.67;100726.75;4909272;29;20222;-82
2022/03/12 05:05:14;;;;;;;7.40;5.57;;;;;;;-3.85;44.78;100726.84;4887401;29;20247;-81
2022/03/12 05:07:48;;;;;;;12.67;5.43;;;;;;;-3.77;44.59;100732.41;4889605;29;20703;-81
2022/03/12 05:10:17;;;;;;;9.23;5.20;;;;;;;-3.83;44.67;100727.59;4923997;29;20226;-82
2022/03/12 05:12:48;;;;;;;8.17;5.10;;;;;;;-3.86;44.90;100716.44;4906247;29;20250;-82
2022/03/12 05:15:17;;;;;;;8.33;5.50;;;;;;;-3.87;44.94;100730.50;4916456;29;20591;-81
2022/03/12 05:17:47;;;;;;;12.00;5.53;;;;;;;-3.74;44.47;100724.34;4928487;29;20261;-81
2022/03/12 05:20:22;;;;;;;7.17;5.23;;;;;;;-3.82;44.36;100731.00;4911006;29;20243;-81
2022/03/12 05:22:50;;;;;;;8.17;5.07;;;;;;;-3.71;44.38;100723.28;4926764;29;20233;-81
2022/03/12 05:25:19;;;;;;;10.73;4.90;;;;;;;-3.63;43.97;100736.72;4926515;29;20262;-82
2022/03/12 05:27:47;;;;;;;8.13;5.50;;;;;;;-3.58;43.84;100726.78;4926723;29;20709;-81
2022/03/12 05:30:15;;;;;;;11.27;5.87;;;;;;;-3.59;44.04;100714.59;4917901;29;20237;-81
2022/03/12 05:32:44;;;;;;;7.50;4.70;;;;;;;-3.45;42.79;100719.75;4919919;29;20249;-81
2022/03/12 05:35:12;;;;;;;7.87;4.80;;;;;;;-3.45;43.08;100724.19;4908280;29;20265;-81
2022/03/12 05:37:41;;;;;;;7.30;5.27;;;;;;;-3.49;42.67;100696.47;4909501;29;20238;-81
2022/03/12 05:40:11;;;;;;;7.47;5.10;;;;;;;-3.22;42.43;100705.09;4926766;29;20245;-81
2022/03/12 05:42:38;;;;;;;10.97;5.10;;;;;;;-3.18;41.61;100703.94;4927394;29;20245;-81
2022/03/12 05:45:09;;;;;;;7.67;4.80;;;;;;;-2.99;40.96;100709.59;4926484;29;20238;-82
2022/03/12 05:47:38;;;;;;;9.67;4.87;;;;;;;-2.95;40.90;100715.44;4926119;29;20268;-82
2022/03/12 05:50:09;;;;;;;7.33;4.93;;;;;;;-2.83;40.50;100699.69;4926838;29;20306;-81
2022/03/12 05:52:41;;;;;;;6.47;4.13;;;;;;;-2.67;39.96;100708.16;4926702;29;20234;-81
2022/03/12 05:55:08;;;;;;;11.17;4.70;;;;;;;-2.63;39.79;100708.75;4926106;29;20634;-81
2022/03/12 05:57:36;;;;;;;6.33;4.50;;;;;;;-2.48;39.40;100710.31;4926651;29;20230;-81
2022/03/12 06:00:04;;;;;;;7.27;4.50;;;;;;;-2.44;39.07;100689.91;4918817;29;20254;-81
2022/03/12 06:02:50;;;;;;;8.33;4.33;;;;;;;-2.35;38.89;100697.97;4922268;29;20241;-82
2022/03/12 06:05:21;;;;;;;7.10;4.33;;;;;;;-2.17;38.24;100700.19;4873425;29;1211223;-81
2022/03/12 06:07:49;;;;;;;6.17;4.27;;;;;;;-2.08;38.73;100708.22;4923617;29;20834;-81
2022/03/12 06:10:23;;;;;;;6.37;4.17;;;;;;;-1.99;38.51;100714.59;4919564;29;20644;-81
2022/03/12 06:12:53;;;;;;;7.37;4.77;;;;;;;-2.01;38.39;100717.34;4887947;29;20691;-81
2022/03/12 06:15:24;;;;;;;6.67;4.60;;;;;;;-1.85;38.16;100728.38;4903362;29;20302;-81
2022/03/12 06:17:51;;;;;;;8.27;4.73;;;;;;;-1.66;38.06;100727.00;4889547;29;20235;-82
2022/03/12 06:20:23;;;;;;;7.37;4.97;;;;;;;-1.59;37.39;100712.47;4907168;29;20293;-81
2022/03/12 06:22:51;;;;;;;5.90;4.50;;;;;;;-1.47;37.60;100722.88;4924472;29;20566;-81
2022/03/12 06:25:20;;;;;;;8.43;4.83;;;;;;;-1.41;37.68;100726.84;4923593;29;20254;-82
2022/03/12 06:27:54;;;;;;;7.50;4.67;;;;;;;-1.30;37.39;100729.47;4925170;29;20688;-81
2022/03/12 06:30:26;;;;;;;7.20;4.70;;;;;;;-1.22;37.38;100721.00;4912511;29;20253;-81
2022/03/12 06:32:55;;;;;;;7.47;5.07;;;;;;;-1.11;36.96;100721.84;4926334;29;20289;-81
2022/03/12 06:35:22;;;;;;;7.40;4.57;;;;;;;-1.10;37.34;100725.31;4924583;29;20233;-82
2022/03/12 06:37:49;;;;;;;6.43;4.50;;;;;;;-0.95;36.91;100732.84;4908118;29;20239;-81
2022/03/12 06:40:19;;;;;;;8.00;4.83;;;;;;;-0.84;36.49;100733.81;4911548;29;20242;-81
2022/03/12 06:42:49;;;;;;;8.17;4.80;;;;;;;-0.73;36.82;100739.91;4926538;29;20721;-82
2022/03/12 06:45:16;;;;;;;8.10;5.17;;;;;;;-0.70;36.18;100734.38;4888448;29;20244;-81
2022/03/12 06:47:44;;;;;;;7.97;4.80;;;;;;;-0.54;36.24;100742.75;4889796;29;20246;-81
2022/03/12 06:50:15;;;;;;;7.03;5.30;;;;;;;-0.56;36.29;100738.59;4925550;29;20230;-81
2022/03/12 06:52:45;;;;;;;8.03;4.83;;;;;;;-0.46;36.07;100734.25;4919607;29;20253;-82
2022/03/12 06:55:11;;;;;;;8.23;5.27;;;;;;;-0.52;36.04;100727.69;4921855;29;20234;-81
2022/03/12 06:57:40;;;;;;;8.17;4.90;;;;;;;-0.38;36.13;100742.38;4922997;29;20240;-81
2022/03/12 07:00:12;;;;;;;7.70;5.30;;;;;;;-0.26;36.14;100737.91;4926061;29;20261;-81
2022/03/12 07:02:40;;;;;;;7.57;4.80;;;;;;;-0.27;36.39;100739.72;4926604;29;20242;-81
2022/03/12 07:05:07;;;;;;;7.77;5.13;;;;;;;-0.20;36.44;100732.16;4908452;29;20297;-81
2022/03/12 07:07:34;;;;;;;8.20;5.13;;;;;;;-0.08;36.32;100741.69;4925554;29;20242;-81
2022/03/12 07:10:01;;;;;;;6.20;4.83;;;;;;;0.00;36.02;100728.75;4924000;29;20319;-82
2022/03/12 07:12:28;;;;;;;7.40;4.93;;;;;;;0.09;36.14;100729.78;4910874;29;20358;-81
2022/03/12 07:14:54;;;;;;;7.00;5.10;;;;;;;0.12;35.85;100730.38;4907121;29;20266;-81
2022/03/12 07:17:21;;;;;;;7.60;5.63;;;;;;;0.29;36.20;100734.22;4906249;29;20241;-82
2022/03/12 07:19:48;;;;;;;8.17;5.40;;;;;;;0.37;35.23;100730.00;4916342;29;20246;-81
2022/03/12 07:22:15;;;;;;;9.83;5.87;;;;;;;0.42;35.48;100729.66;4918445;29;20241;-81
2022/03/12 07:24:42;;;;;;;12.13;8.53;;;;;;;0.51;34.40;100728.88;4906972;29;20245;-80
2022/03/12 07:27:08;;;;;;;11.77;7.90;;;;;;;0.64;34.63;100742.69;4898816;29;20243;-81
2022/03/12 07:29:36;;;;;;;7.07;5.33;;;;;;;0.71;35.21;100735.09;4916227;29;20294;-81
2022/03/12 07:32:04;;;;;;;8.37;5.63;;;;;;;0.83;35.00;100739.34;4898789;29;20238;-81
2022/03/12 07:34:31;;;;;;;8.17;5.50;;;;;;;0.96;34.63;100725.94;4912064;29;20365;-81
2022/03/12 07:36:58;;;;;;;6.83;5.13;;;;;;;1.09;35.20;100734.44;4911426;29;20223;-81
2022/03/12 07:39:25;;;;;;;7.77;5.40;;;;;;;1.18;34.55;100736.31;4910168;29;20253;-80
2022/03/12 07:41:52;;;;;;;8.87;5.60;;;;;;;1.27;34.30;100738.13;4912935;29;20612;-81
2022/03/12 07:44:18;;;;;;;10.10;5.17;;;;;;;1.29;34.12;100738.84;4911629;29;20266;-81
2022/03/12 07:46:45;;;;;;;7.27;5.00;;;;;;;1.43;34.53;100733.22;4926264;29;20245;-81
2022/03/12 07:49:13;;;;;;;8.63;5.30;;;;;;;1.59;33.58;100733.50;4919901;29;20714;-81
2022/03/12 07:51:43;;;;;;;7.80;5.07;;;;;;;1.61;34.62;100739.50;4899421;29;20231;-82
2022/03/12 07:54:13;;;;;;;6.90;5.30;;;;;;;1.70;33.54;100738.69;4907346;29;20245;-80
2022/03/12 07:56:40;;;;;;;7.43;5.17;;;;;;;1.69;33.44;100730.91;4925193;29;20237;-81
2022/03/12 07:59:07;;;;;;;6.27;4.93;;;;;;;1.70;33.35;100727.28;4912003;29;20233;-81
2022/03/12 08:01:34;;;;;;;9.17;7.63;;;;;;;1.92;32.88;100740.25;4922078;29;20256;-82
2022/03/12 08:04:02;;;;;;;7.50;6.27;;;;;;;2.02;33.03;100740.25;4899025;29;20243;-81
2022/03/12 08:06:30;;;;;;;10.03;7.57;;;;;;;2.10;32.93;100737.78;4927506;29;20242;-81
2022/03/12 08:08:57;;;;;;;6.83;5.20;;;;;;;2.16;32.44;100738.06;4917025;29;20241;-82
2022/03/12 08:11:25;;;;;;;9.17;5.50;;;;;;;2.42;32.72;100734.84;4908063;29;20306;-82
2022/03/12 08:13:54;;;;;;;7.83;4.83;;;;;;;2.53;32.33;100742.63;4912092;29;20234;-81
2022/03/12 08:16:21;;;;;;;8.40;5.27;;;;;;;2.62;32.42;100739.97;4912862;29;20246;-82
2022/03/12 08:18:48;;;;;;;9.57;5.40;;;;;;;2.73;32.44;100741.63;4925232;29;20247;-81
2022/03/12 08:21:15;;;;;;;7.77;5.10;;;;;;;2.72;31.45;100736.47;4928028;29;20236;-81
2022/03/12 08:23:43;;;;;;;7.70;4.93;;;;;;;2.93;32.02;100740.63;4930684;29;20226;-81
2022/03/12 08:26:10;;;;;;;8.13;5.57;;;;;;;3.03;31.34;100735.28;4930623;29;20239;-81
2022/03/12 08:28:37;;;;;;;7.60;4.97;;;;;;;3.21;30.65;100740.66;4931302;29;20289;-81
2022/03/12 08:31:05;;;;;;;7.27;5.43;;;;;;;3.18;30.34;100733.00;4931787;29;20225;-81
2022/03/12 08:33:32;;;;;;;8.33;4.87;;;;;;;3.14;30.51;100724.50;4930013;29;20226;-82
2022/03/12 08:36:02;;;;;;;8.87;5.63;;;;;;;3.16;31.21;100721.72;4900709;29;20242;-81
2022/03/12 08:38:30;;;;;;;8.13;5.47;;;;;;;3.32;30.31;100735.16;4923421;29;20230;-82
2022/03/12 08:40:56;;;;;;;6.70;5.27;;;;;;;3.36;29.60;100731.25;4911253;29;20326;-81
2022/03/12 08:43:24;;;;;;;8.60;6.07;;;;;;;3.22;29.77;100727.25;4907348;29;20325;-81
2022/03/12 08:45:51;;;;;;;7.00;5.60;;;;;;;3.24;30.94;100730.59;4909283;29;20279;-81
2022/03/12 08:48:18;;;;;;;7.67;5.80;;;;;;;3.38;30.50;100722.19;4898874;29;20238;-82
2022/03/12 08:50:45;;;;;;;8.03;6.70;;;;;;;3.51;29.65;100717.38;4918968;29;20234;-82
2022/03/12 08:53:12;;;;;;;9.53;6.57;;;;;;;3.67;29.88;100716.72;4919041;29;20245;-82
2022/03/12 08:55:40;;;;;;;9.00;5.23;;;;;;;3.75;29.57;100732.72;4918060;29;20251;-81
2022/03/12 08:58:08;;;;;;;7.07;5.47;;;;;;;3.91;29.65;100738.19;4910032;29;20242;-81
2022/03/12 09:00:35;;;;;;;6.63;5.47;;;;;;;4.08;29.38;100730.38;4910110;29;20464;-82
2022/03/12 09:03:03;;;;;;;7.53;5.43;;;;;;;4.04;28.86;100716.59;4935227;29;20233;-81
2022/03/12 09:05:30;;;;;;;6.07;5.00;;;;;;;4.03;28.57;100722.88;4911796;29;20254;-84
2022/03/12 09:07:58;;;;;;;6.37;5.17;;;;;;;4.04;28.61;100718.41;4917416;29;20237;-82
2022/03/12 09:10:25;;;;;;;7.43;5.40;;;;;;;4.05;29.19;100722.75;4933639;29;20238;-81
2022/03/12 09:12:53;;;;;;;8.83;5.30;;;;;;;4.01;28.16;100711.63;4934418;29;20230;-82
2022/03/12 09:15:24;;;;;;;7.77;5.20;;;;;;;4.15;28.06;100713.75;4934651;29;20266;-82
2022/03/12 09:17:51;;;;;;;5.47;4.57;;;;;;;4.18;28.19;100720.53;4932497;29;20250;-81
2022/03/12 09:20:24;;;;;;;9.33;4.73;;;;;;;4.14;28.92;100709.41;4933300;29;20229;-81
2022/03/12 09:22:52;;;;;;;5.57;4.60;;;;;;;4.29;28.18;100718.47;4915529;29;20235;-81
2022/03/12 09:25:20;;;;;;;5.93;5.00;;;;;;;4.48;28.38;100712.16;4916613;29;20239;-82
2022/03/12 09:27:46;;;;;;;9.53;5.40;;;;;;;4.66;28.26;100707.69;4922932;29;20793;-80
2022/03/12 09:30:21;;;;;;;5.63;5.00;;;;;;;4.76;27.67;100718.16;4936396;29;20331;-82
2022/03/12 09:32:48;;;;;;;9.10;4.93;;;;;;;4.69;27.69;100694.09;4919040;29;20219;-82
2022/03/12 09:35:16;;;;;;;8.60;5.10;;;;;;;4.68;27.65;100692.41;4917265;29;20257;-82
2022/03/12 09:37:42;;;;;;;8.23;5.40;;;;;;;4.81;28.16;100689.34;4913760;29;20239;-81
2022/03/12 09:40:10;;;;;;;6.20;5.10;;;;;;;4.84;28.05;100684.56;4911355;29;20242;-81
2022/03/12 09:42:37;;;;;;;5.70;4.77;;;;;;;4.94;27.28;100692.44;4920573;29;20235;-81
2022/03/12 09:45:05;;;;;;;5.77;4.50;;;;;;;4.95;27.01;100674.63;4921297;29;20243;-82
2022/03/12 09:47:32;;;;;;;7.67;4.70;;;;;;;5.07;26.92;100682.19;4916547;29;20241;-81
2022/03/12 09:49:59;;;;;;;6.60;5.00;;;;;;;5.13;26.73;100680.72;4909534;29;20246;-81
2022/03/12 09:52:26;;;;;;;7.33;4.80;;;;;;;5.24;26.35;100677.78;4914673;29;20240;-81
2022/03/12 09:54:53;;;;;;;6.73;4.73;;;;;;;5.31;26.21;100670.84;4915445;29;20238;-82
2022/03/12 09:57:20;;;;;;;7.60;4.60;;;;;;;5.43;25.69;100672.19;4930989;29;20246;-81
2022/03/12 09:59:48;;;;;;;8.23;4.70;;;;;;;5.51;24.58;100671.38;4926394;29;20717;-82
2022/03/12 10:02:15;;;;;;;7.27;4.87;;;;;;;5.44;24.93;100660.59;4908953;29;20386;-81
2022/03/12 10:04:45;;;;;;;9.17;4.70;;;;;;;5.41;24.32;100660.09;4918613;29;20242;-82
2022/03/12 10:07:13;;;;;;;12.53;5.33;;;;;;;5.50;24.65;100646.66;4920243;29;20234;-82
2022/03/12 10:09:40;;;;;;;40.40;9.37;;;;;;;5.59;24.49;100656.31;4922361;29;20238;-82
2022/03/12 10:12:07;;;;;;;9.83;4.87;;;;;;;5.63;24.87;100652.34;4924151;29;20246;-81
2022/03/12 10:14:34;;;;;;;16.23;6.17;;;;;;;5.77;24.29;100645.53;4923040;29;20238;-82
2022/03/12 10:17:02;;;;;;;5.90;4.90;;;;;;;5.85;25.07;100642.06;4911635;29;20242;-82
2022/03/12 10:19:30;;;;;;;9.37;6.30;;;;;;;5.97;25.37;100657.53;4932572;29;20674;-82
2022/03/12 10:21:58;;;;;;;8.40;4.73;;;;;;;6.12;24.53;100644.41;4930782;29;20302;-82
2022/03/12 10:24:25;;;;;;;15.50;6.00;;;;;;;5.99;23.49;100644.94;4903889;29;20241;-78
2022/03/12 10:26:52;;;;;;;27.40;7.20;;;;;;;6.07;24.10;100647.59;4901472;29;20223;-78
2022/03/12 10:29:19;;;;;;;5.60;4.50;;;;;;;6.12;23.09;100644.41;4905254;29;20242;-78
2022/03/12 10:31:46;;;;;;;10.43;4.90;;;;;;;6.23;24.19;100648.59;4907284;29;20230;-78
2022/03/12 10:34:17;;;;;;;13.43;5.30;;;;;;;6.29;23.47;100639.94;4906864;29;20734;-78
2022/03/12 10:36:45;;;;;;;6.37;3.73;;;;;;;6.32;22.45;100632.44;4908956;29;20230;-78
2022/03/12 10:39:11;;;;;;;4.57;3.87;;;;;;;6.41;22.74;100633.25;4901445;29;20254;-78
2022/03/12 10:41:38;;;;;;;6.53;4.70;;;;;;;6.49;21.99;100631.41;4907709;29;20588;-78
2022/03/12 10:44:06;;;;;;;6.10;3.80;;;;;;;6.70;21.50;100630.88;4909423;29;20234;-78
2022/03/12 10:46:34;;;;;;;9.53;3.90;;;;;;;6.86;21.17;100622.03;4907852;29;20234;-78
2022/03/12 10:49:04;;;;;;;18.33;9.70;;;;;;;6.85;19.56;100621.19;4907939;29;20234;-78
2022/03/12 10:51:40;;;;;;;17.27;10.23;;;;;;;6.97;19.24;100617.16;4903923;29;20242;-78
2022/03/12 10:54:15;;;;;;;11.23;9.30;;;;;;;6.99;20.80;100620.47;4901568;29;20313;-78
2022/03/12 10:56:51;;;;;;;12.27;11.03;;;;;;;7.15;20.27;100630.22;4906300;29;20245;-78
2022/03/12 10:59:22;;;;;;;7.07;5.60;;;;;;;7.20;20.44;100605.72;4906207;29;20789;-78
2022/03/12 11:02:01;;;;;;;21.07;17.20;;;;;;;7.26;20.25;100603.19;4897380;29;20239;-79
2022/03/12 11:04:34;;;;;;;80.67;42.50;;;;;;;7.37;20.59;100605.44;4899391;29;20293;-79
2022/03/12 11:07:21;;;;;;;125.07;47.77;;;;;;;7.60;19.06;100600.19;4903054;29;20297;-79
2022/03/12 11:09:48;;;;;;;41.47;21.93;;;;;;;7.53;18.50;100597.38;4902944;29;21619;-78
2022/03/12 11:12:31;;;;;;;33.23;22.03;;;;;;;7.56;18.72;100590.03;4896880;29;20270;-79
2022/03/12 11:15:05;;;;;;;23.87;14.53;;;;;;;7.59;19.98;100595.84;4904622;29;20741;-79
2022/03/12 11:17:43;;;;;;;19.47;12.27;;;;;;;7.65;19.43;100581.78;4901769;29;20249;-79
2022/03/12 11:20:21;;;;;;;19.37;10.80;;;;;;;7.71;19.93;100585.56;4902328;29;20710;-78
2022/03/12 11:23:05;;;;;;;10.83;8.33;;;;;;;7.74;19.17;100569.25;4910838;29;20378;-79
2022/03/12 11:25:35;;;;;;;20.43;14.10;;;;;;;7.77;19.52;100572.38;4902841;29;20238;-79
2022/03/12 11:28:19;;;;;;;8.40;5.67;;;;;;;7.74;18.83;100562.06;4898359;29;20283;-79
2022/03/12 11:30:46;;;;;;;4.90;4.30;;;;;;;7.78;19.04;100557.19;4895546;29;20321;-78
2022/03/12 11:33:14;;;;;;;4.50;3.87;;;;;;;7.76;19.55;100548.53;4906497;29;20649;-79
2022/03/12 11:35:45;;;;;;;15.03;10.83;;;;;;;7.89;19.52;100546.91;4909117;29;20665;-79